Coeur D'Alene - Pappy Boyington Field
KCOE : now visible

Aeroporto :











RITROVATECI SU...

 
LOGIN :

Iscrizione | Disclaimer

   EN    FR    IT 

 









Sommario :    VFR   VFR Marginale   IFR   IFR Intensivo   IFR Molto Intensivo
Visibilità : 
Base nubi : 
>= 8 km
>= 3000ft
5 / 8 km
1000 / 3000 ft
1500m / 5 km
500 / 1000 ft
800 / 1500m
200 / 500 ft
< 800m
< 200 ft
Simboli :   Temporali  Nebbia  Neve Forte  Precipitazioni Forti  Vento > 20 kt






- Altitudine del aeroporto : 2320 ft


KCOE - Coeur D'Alene - Pappy Boyington Field

ULTIMO METAR :
  • 271156Z AUTO 00000KT 10SM CLR M02/M03 A3037 RMK AO2 SLP321 T10171028 10011 21017 58005 FZRANO

METARs OBSOLETI :
  • 271056Z AUTO 06005KT 10SM CLR M02/M03 A3037 RMK AO2 SLP320 T10171028 FZRANO
  • 270956Z AUTO 08003KT 10SM CLR M01/M03 A3039 RMK AO2 SLP327 T10061028 FZRANO

TAF KCOE
Valido dal 27 a 12 ore il 28 a 12 ore UTC


271120Z 2712/2812 05006KT P6SM SCT120 OVC200
FM271500 04005KT P6SM SCT035 BKN200
FM272100 20004KT P6SM SCT070 BKN200
FM280300 15004KT P6SM SCT200



MetMap, La meteo Aeronautica in un colpo d'occhio ! - Copyright ORBIFLY Dicembre 2007 - Disclaimer

ORBIFLY MET'MAP TEAM :

Programmazione e sviluppo : Alexandra Zaïnal
Concezione : Baudouin d'Aumeries
Aiuto per la programmazione : Marc-Olivier Méhu
Supporto tecnico e logistico : Manuel Goepfert
Aiuto per la traduzione : Arnaldo La Scala

Contatto : metmap@orbifly.com




FONTI E CREDITI :

   NOAA       Earth
Advisory